createdAt,value
2017-08-05T00:00:40.300Z,0
2017-08-05T00:01:40.282Z,0
2017-08-05T00:02:40.263Z,0
2017-08-05T00:03:40.244Z,0
2017-08-05T00:04:40.224Z,0
2017-08-05T00:05:39.906Z,0
2017-08-05T00:06:40.182Z,0
2017-08-05T00:07:39.860Z,0
2017-08-05T00:08:40.139Z,0
2017-08-05T00:09:39.525Z,0
2017-08-05T00:10:40.100Z,0
2017-08-05T00:11:39.787Z,0
2017-08-05T00:12:39.926Z,0
2017-08-05T00:13:40.042Z,0
2017-08-05T00:14:40.019Z,0
2017-08-05T00:15:40.000Z,0
2017-08-05T00:16:39.680Z,0
2017-08-05T00:17:39.956Z,0
2017-08-05T00:18:39.943Z,0
2017-08-05T00:19:39.912Z,0
2017-08-05T00:20:39.900Z,0
2017-08-05T00:21:39.877Z,0
2017-08-05T00:22:39.562Z,0
2017-08-05T00:23:39.840Z,0
2017-08-05T00:24:39.519Z,0
2017-08-05T00:25:39.798Z,0
2017-08-05T00:26:39.483Z,0
2017-08-05T00:27:39.459Z,0
2017-08-05T00:28:39.738Z,0
2017-08-05T00:29:39.419Z,0
2017-08-05T00:30:39.399Z,0
2017-08-05T00:31:39.378Z,0
2017-08-05T00:32:39.651Z,0
2017-08-05T00:33:39.334Z,0
2017-08-05T00:34:39.319Z,0
2017-08-05T00:35:39.301Z,0
2017-08-05T00:36:39.573Z,0
2017-08-05T00:37:39.546Z,0
2017-08-05T00:38:39.235Z,0
2017-08-05T00:39:39.215Z,0
2017-08-05T00:40:39.497Z,0
2017-08-05T00:41:39.469Z,0
2017-08-05T00:42:39.448Z,0
2017-08-05T00:43:39.424Z,0
2017-08-05T00:44:39.413Z,0
2017-08-05T00:45:39.392Z,0
2017-08-05T00:46:39.361Z,0
2017-08-05T00:47:39.049Z,0
2017-08-05T00:48:39.327Z,0
2017-08-05T00:49:39.304Z,0
2017-08-05T00:50:38.994Z,0
2017-08-05T00:51:39.269Z,0
2017-08-05T00:52:39.241Z,0
2017-08-05T00:53:38.926Z,0
2017-08-05T00:54:38.909Z,0
2017-08-05T00:55:39.187Z,0
2017-08-05T00:56:39.166Z,0
2017-08-05T00:57:39.146Z,0
2017-08-05T00:58:39.175Z,0
2017-08-05T00:59:38.808Z,0
2017-08-05T01:00:39.084Z,0
2017-08-05T01:01:39.070Z,0
2017-08-05T01:02:38.740Z,0
2017-08-05T01:03:38.721Z,0
2017-08-05T01:04:39.001Z,0
2017-08-05T01:05:38.690Z,0
2017-08-05T01:06:38.960Z,0
2017-08-05T01:07:38.950Z,0
2017-08-05T01:08:38.921Z,0
2017-08-05T01:09:38.899Z,0
2017-08-05T01:10:38.979Z,0
2017-08-05T01:11:38.258Z,0
2017-08-05T01:12:38.831Z,0
2017-08-05T01:13:38.813Z,0
2017-08-05T01:14:38.794Z,0
2017-08-05T01:15:38.778Z,0
2017-08-05T01:16:38.760Z,0
2017-08-05T01:17:38.733Z,0
2017-08-05T01:18:38.412Z,0
2017-08-05T01:19:38.688Z,0
2017-08-05T01:20:38.665Z,0
2017-08-05T01:21:38.650Z,0
2017-08-05T01:22:38.633Z,0
2017-08-05T01:23:38.603Z,0
2017-08-05T01:24:38.283Z,0
2017-08-05T01:25:38.573Z,0
2017-08-05T01:26:38.545Z,0
2017-08-05T01:27:38.521Z,0
2017-08-05T01:28:38.508Z,0
2017-08-05T01:29:38.478Z,0
2017-08-05T01:30:38.464Z,0
2017-08-05T01:31:38.444Z,0
2017-08-05T01:32:38.430Z,0
2017-08-05T01:33:38.397Z,0
2017-08-05T01:34:38.077Z,0
2017-08-05T01:35:38.056Z,0
2017-08-05T01:36:38.341Z,0
2017-08-05T01:37:38.014Z,0
2017-08-05T01:38:38.300Z,0
2017-08-05T01:39:38.276Z,0
2017-08-05T01:40:37.959Z,0
2017-08-05T01:41:37.930Z,0
2017-08-05T01:42:38.203Z,0
2017-08-05T01:43:38.196Z,0
2017-08-05T01:44:37.873Z,0
2017-08-05T01:45:37.848Z,0
2017-08-05T01:46:38.123Z,0
2017-08-05T01:47:37.806Z,0
2017-08-05T01:48:38.090Z,0
2017-08-05T01:49:38.060Z,0
2017-08-05T01:50:37.741Z,0
2017-08-05T01:51:38.024Z,0
2017-08-05T01:52:37.997Z,0
2017-08-05T01:53:37.975Z,0
2017-08-05T01:54:37.980Z,0
2017-08-05T01:55:37.942Z,0
2017-08-05T01:56:37.914Z,0
2017-08-05T01:57:37.599Z,0
2017-08-05T01:58:37.577Z,0
2017-08-05T01:59:37.857Z,0
2017-08-05T02:00:37.836Z,0
2017-08-05T02:01:37.809Z,0
2017-08-05T02:02:37.793Z,0
2017-08-05T02:03:37.765Z,0
2017-08-05T02:04:37.747Z,0
2017-08-05T02:05:37.726Z,0
2017-08-05T02:06:37.710Z,0
2017-08-05T02:07:37.687Z,0
2017-08-05T02:08:37.365Z,0
2017-08-05T02:09:37.666Z,0
2017-08-05T02:10:37.633Z,0
2017-08-05T02:11:37.601Z,0
2017-08-05T02:12:37.588Z,0
2017-08-05T02:13:37.563Z,0
2017-08-05T02:14:37.560Z,0
2017-08-05T02:15:37.524Z,0
2017-08-05T02:16:37.499Z,0
2017-08-05T02:17:37.484Z,0
2017-08-05T02:18:37.159Z,0
2017-08-05T02:19:37.439Z,0
2017-08-05T02:20:37.118Z,0
2017-08-05T02:21:37.400Z,0
2017-08-05T02:22:37.376Z,0
2017-08-05T02:23:37.357Z,0
2017-08-05T02:24:37.340Z,0
2017-08-05T02:25:37.319Z,0
2017-08-05T02:26:36.413Z,0
2017-08-05T02:27:36.682Z,0
2017-08-05T02:28:37.258Z,0
2017-08-05T02:29:37.238Z,0
2017-08-05T02:30:36.930Z,0
2017-08-05T02:31:36.633Z,0
2017-08-05T02:32:37.172Z,0
2017-08-05T02:33:36.860Z,0
2017-08-05T02:34:37.143Z,0
2017-08-05T02:35:37.111Z,0
2017-08-05T02:36:37.088Z,0
2017-08-05T02:37:37.067Z,0
2017-08-05T02:38:37.055Z,0
2017-08-05T02:39:36.735Z,0
2017-08-05T02:40:37.021Z,0
2017-08-05T02:41:36.992Z,0
2017-08-05T02:42:36.981Z,0
2017-08-05T02:43:36.948Z,0
2017-08-05T02:44:36.937Z,0
2017-08-05T02:45:36.624Z,0
2017-08-05T02:46:36.888Z,0
2017-08-05T02:47:36.872Z,0
2017-08-05T02:48:36.846Z,0
2017-08-05T02:49:36.827Z,0
2017-08-05T02:50:36.515Z,0
2017-08-05T02:51:36.795Z,0
2017-08-05T02:52:36.490Z,0
2017-08-05T02:53:36.752Z,0
2017-08-05T02:54:36.727Z,0
2017-08-05T02:55:36.703Z,0
2017-08-05T02:56:36.680Z,0
2017-08-05T02:57:36.370Z,0
2017-08-05T02:58:36.637Z,0
2017-08-05T02:59:36.625Z,0
2017-08-05T03:00:36.598Z,0
2017-08-05T03:01:36.586Z,0
2017-08-05T03:02:36.269Z,0
2017-08-05T03:03:36.541Z,0
2017-08-05T03:04:36.238Z,0
2017-08-05T03:05:36.495Z,0
2017-08-05T03:06:36.475Z,0
2017-08-05T03:07:36.454Z,0
2017-08-05T03:08:36.446Z,0
2017-08-05T03:09:36.415Z,0
2017-08-05T03:10:36.395Z,0
2017-08-05T03:11:36.379Z,0
2017-08-05T03:12:36.348Z,0
2017-08-05T03:13:36.340Z,0
2017-08-05T03:14:36.314Z,0
2017-08-05T03:15:36.287Z,0
2017-08-05T03:16:35.986Z,0
2017-08-05T03:17:36.248Z,0
2017-08-05T03:18:35.923Z,0
2017-08-05T03:19:35.906Z,0
2017-08-05T03:20:36.183Z,0
2017-08-05T03:21:35.865Z,0
2017-08-05T03:22:35.849Z,0
2017-08-05T03:23:35.838Z,0
2017-08-05T03:24:36.099Z,0
2017-08-05T03:25:36.070Z,0
2017-08-05T03:26:35.762Z,0
2017-08-05T03:27:36.041Z,0
2017-08-05T03:28:35.715Z,0
2017-08-05T03:29:35.993Z,0
2017-08-05T03:30:35.979Z,0
2017-08-05T03:31:35.949Z,0
2017-08-05T03:32:35.929Z,0
2017-08-05T03:33:35.910Z,0
2017-08-05T03:34:35.884Z,0
2017-08-05T03:35:35.863Z,0
2017-08-05T03:36:35.538Z,0
2017-08-05T03:37:35.523Z,0
2017-08-05T03:38:35.799Z,0
2017-08-05T03:39:35.774Z,0
2017-08-05T03:40:35.753Z,0
2017-08-05T03:41:35.731Z,0
2017-08-05T03:42:35.117Z,0
2017-08-05T03:43:35.391Z,0
2017-08-05T03:44:35.708Z,0
2017-08-05T03:45:35.641Z,0
2017-08-05T03:46:35.622Z,0
2017-08-05T03:47:35.600Z,0
2017-08-05T03:48:35.568Z,0
2017-08-05T03:49:35.264Z,0
2017-08-05T03:50:35.535Z,0
2017-08-05T03:51:35.513Z,0
2017-08-05T03:52:35.489Z,0
2017-08-05T03:53:35.465Z,0
2017-08-05T03:54:35.443Z,0
2017-08-05T03:55:35.419Z,0
2017-08-05T03:56:35.404Z,0
2017-08-05T03:57:35.389Z,0
2017-08-05T03:58:35.358Z,0
2017-08-05T03:59:35.035Z,0
2017-08-05T04:00:35.309Z,0
2017-08-05T04:01:35.290Z,0
2017-08-05T04:02:35.262Z,0
2017-08-05T04:03:35.254Z,0
2017-08-05T04:04:35.237Z,0
2017-08-05T04:05:35.214Z,0
2017-08-05T04:06:35.181Z,0
2017-08-05T04:07:35.156Z,0
2017-08-05T04:08:35.129Z,5
2017-08-05T04:09:35.112Z,5
2017-08-05T04:10:35.095Z,5
2017-08-05T04:11:35.066Z,5
2017-08-05T04:12:35.038Z,5
2017-08-05T04:13:34.738Z,5
2017-08-05T04:14:35.005Z,5
2017-08-05T04:15:34.980Z,5
2017-08-05T04:16:34.968Z,5
2017-08-05T04:17:34.943Z,5
2017-08-05T04:18:34.611Z,5
2017-08-05T04:19:34.889Z,5
2017-08-05T04:20:34.873Z,5
2017-08-05T04:21:34.851Z,5
2017-08-05T04:22:34.819Z,5
2017-08-05T04:23:34.807Z,5
2017-08-05T04:24:34.480Z,5
2017-08-05T04:25:34.458Z,5
2017-08-05T04:26:34.732Z,5
2017-08-05T04:27:34.410Z,5
2017-08-05T04:28:34.694Z,10
2017-08-05T04:29:34.369Z,10
2017-08-05T04:30:34.636Z,10
2017-08-05T04:31:34.322Z,10
2017-08-05T04:32:34.298Z,10
2017-08-05T04:33:34.576Z,10
2017-08-05T04:34:34.555Z,10
2017-08-05T04:35:34.530Z,10
2017-08-05T04:36:34.520Z,15
2017-08-05T04:37:34.490Z,20
2017-08-05T04:38:34.171Z,20
2017-08-05T04:39:34.154Z,25
2017-08-05T04:40:34.421Z,25
2017-08-05T04:41:34.410Z,25
2017-08-05T04:42:34.383Z,20
2017-08-05T04:43:34.358Z,20
2017-08-05T04:44:34.334Z,20
2017-08-05T04:45:34.013Z,20
2017-08-05T04:46:34.289Z,20
2017-08-05T04:47:34.268Z,20
2017-08-05T04:48:34.243Z,20
2017-08-05T04:49:33.928Z,20
2017-08-05T04:50:33.902Z,20
2017-08-05T04:51:33.886Z,20
2017-08-05T04:52:34.167Z,20
2017-08-05T04:53:34.135Z,20
2017-08-05T04:54:34.123Z,20
2017-08-05T04:55:34.095Z,20
2017-08-05T04:56:34.073Z,20
2017-08-05T04:57:34.109Z,20
2017-08-05T04:58:33.740Z,20
2017-08-05T04:59:34.006Z,20
2017-08-05T05:00:33.998Z,20
2017-08-05T05:01:33.962Z,20
2017-08-05T05:02:33.953Z,20
2017-08-05T05:03:33.920Z,20
2017-08-05T05:04:33.902Z,25
2017-08-05T05:05:33.873Z,25
2017-08-05T05:06:33.848Z,25
2017-08-05T05:07:33.829Z,20
2017-08-05T05:08:33.510Z,20
2017-08-05T05:09:33.787Z,20
2017-08-05T05:10:33.768Z,20
2017-08-05T05:11:33.742Z,20
2017-08-05T05:12:33.425Z,20
2017-08-05T05:13:33.705Z,25
2017-08-05T05:14:33.678Z,30
2017-08-05T05:15:33.662Z,35
2017-08-05T05:16:33.629Z,35
2017-08-05T05:17:33.607Z,35
2017-08-05T05:18:33.295Z,35
2017-08-05T05:19:33.566Z,35
2017-08-05T05:20:33.554Z,40
2017-08-05T05:21:33.532Z,40
2017-08-05T05:22:33.499Z,40
2017-08-05T05:23:33.478Z,40
2017-08-05T05:24:33.457Z,40
2017-08-05T05:25:33.434Z,40
2017-08-05T05:26:33.442Z,40
2017-08-05T05:27:33.396Z,40
2017-08-05T05:28:33.372Z,40
2017-08-05T05:29:33.345Z,40
2017-08-05T05:30:33.328Z,40
2017-08-05T05:31:33.313Z,45
2017-08-05T05:32:33.289Z,45
2017-08-05T05:33:33.259Z,50
2017-08-05T05:34:33.249Z,50
2017-08-05T05:35:33.217Z,55
2017-08-05T05:36:33.200Z,60
2017-08-05T05:37:32.875Z,70
2017-08-05T05:38:33.165Z,75
2017-08-05T05:39:32.841Z,80
2017-08-05T05:40:33.111Z,100
2017-08-05T05:41:33.097Z,120
2017-08-05T05:42:33.066Z,140
2017-08-05T05:43:32.755Z,155
2017-08-05T05:44:32.727Z,160
2017-08-05T05:45:33.004Z,145
2017-08-05T05:46:32.982Z,120
2017-08-05T05:47:32.958Z,100
2017-08-05T05:48:32.939Z,90
2017-08-05T05:49:32.923Z,85
2017-08-05T05:50:32.892Z,80
2017-08-05T05:51:32.872Z,75
2017-08-05T05:52:32.861Z,70
2017-08-05T05:53:32.825Z,75
2017-08-05T05:54:32.819Z,80
2017-08-05T05:55:32.784Z,85
2017-08-05T05:56:32.764Z,90
2017-08-05T05:57:32.737Z,95
2017-08-05T05:58:32.731Z,100
2017-08-05T05:59:32.709Z,100
2017-08-05T06:00:32.692Z,100
2017-08-05T06:01:32.366Z,95
2017-08-05T06:02:32.641Z,100
2017-08-05T06:03:32.614Z,100
2017-08-05T06:04:32.595Z,105
2017-08-05T06:05:32.271Z,110
2017-08-05T06:06:32.250Z,110
2017-08-05T06:07:32.241Z,115
2017-08-05T06:08:32.209Z,120
2017-08-05T06:09:32.480Z,130
2017-08-05T06:10:32.183Z,145
2017-08-05T06:11:32.149Z,170
2017-08-05T06:12:32.134Z,185
2017-08-05T06:13:32.104Z,190
2017-08-05T06:14:32.081Z,195
2017-08-05T06:15:32.363Z,175
2017-08-05T06:16:32.336Z,155
2017-08-05T06:17:32.312Z,145
2017-08-05T06:18:32.286Z,135
2017-08-05T06:19:32.280Z,120
2017-08-05T06:20:32.243Z,115
2017-08-05T06:21:32.227Z,100
2017-08-05T06:22:32.203Z,85
2017-08-05T06:23:32.185Z,80
2017-08-05T06:24:32.160Z,80
2017-08-05T06:25:32.142Z,85
2017-08-05T06:26:32.126Z,90
2017-08-05T06:27:32.095Z,105
2017-08-05T06:28:32.072Z,115
2017-08-05T06:29:32.053Z,110
2017-08-05T06:30:32.030Z,100
2017-08-05T06:31:32.018Z,95
2017-08-05T06:32:31.988Z,105
2017-08-05T06:33:31.671Z,120
2017-08-05T06:34:31.950Z,115
2017-08-05T06:35:31.923Z,105
2017-08-05T06:36:31.906Z,95
2017-08-05T06:37:31.614Z,120
2017-08-05T06:38:31.857Z,145
2017-08-05T06:39:31.839Z,130
2017-08-05T06:40:31.825Z,120
2017-08-05T06:41:31.790Z,120
2017-08-05T06:42:31.788Z,115
2017-08-05T06:43:31.458Z,115
2017-08-05T06:44:31.734Z,115
2017-08-05T06:45:31.414Z,115
2017-08-05T06:46:31.387Z,115
2017-08-05T06:47:31.674Z,125
2017-08-05T06:48:31.349Z,130
2017-08-05T06:49:31.619Z,135
2017-08-05T06:50:31.607Z,140
2017-08-05T06:51:31.582Z,145
2017-08-05T06:52:31.264Z,140
2017-08-05T06:53:31.242Z,135
2017-08-05T06:54:31.225Z,125
2017-08-05T06:55:31.499Z,120
2017-08-05T06:56:31.471Z,120
2017-08-05T06:57:31.445Z,125
2017-08-05T06:58:30.847Z,130
2017-08-05T06:59:31.410Z,130
2017-08-05T07:00:30.791Z,135
2017-08-05T07:01:31.075Z,145
2017-08-05T07:02:31.341Z,150
2017-08-05T07:03:31.031Z,145
2017-08-05T07:04:31.293Z,140
2017-08-05T07:05:31.282Z,135
2017-08-05T07:06:30.963Z,135
2017-08-05T07:07:31.231Z,135
2017-08-05T07:08:31.217Z,140
2017-08-05T07:09:31.194Z,145
2017-08-05T07:10:31.173Z,155
2017-08-05T07:11:30.853Z,160
2017-08-05T07:12:31.129Z,160
2017-08-05T07:13:30.806Z,155
2017-08-05T07:14:31.088Z,150
2017-08-05T07:15:31.061Z,140
2017-08-05T07:16:31.094Z,140
2017-08-05T07:17:31.025Z,140
2017-08-05T07:18:30.700Z,135
2017-08-05T07:19:30.974Z,130
2017-08-05T07:20:30.954Z,120
2017-08-05T07:21:30.930Z,110
2017-08-05T07:22:30.923Z,100
2017-08-05T07:23:30.890Z,90
2017-08-05T07:24:30.868Z,95
2017-08-05T07:25:30.553Z,120
2017-08-05T07:26:30.230Z,160
2017-08-05T07:27:30.801Z,200
2017-08-05T07:28:30.478Z,215
2017-08-05T07:29:30.467Z,210
2017-08-05T07:30:30.438Z,170
2017-08-05T07:31:30.717Z,130
2017-08-05T07:32:30.392Z,125
2017-08-05T07:33:30.676Z,140
2017-08-05T07:34:30.650Z,170
2017-08-05T07:35:30.628Z,180
2017-08-05T07:36:30.611Z,180
2017-08-05T07:37:30.591Z,175
2017-08-05T07:38:30.271Z,180
2017-08-05T07:39:30.248Z,195
2017-08-05T07:40:30.231Z,180
2017-08-05T07:41:30.508Z,165
2017-08-05T07:42:30.477Z,150
2017-08-05T07:43:30.455Z,155
2017-08-05T07:44:30.437Z,160
2017-08-05T07:45:30.418Z,155
2017-08-05T07:46:30.403Z,155
2017-08-05T07:47:30.371Z,160
2017-08-05T07:48:30.351Z,170
2017-08-05T07:49:30.329Z,190
2017-08-05T07:50:30.008Z,195
2017-08-05T07:51:29.986Z,205
2017-08-05T07:52:30.263Z,220
2017-08-05T07:53:30.246Z,240
2017-08-05T07:54:30.226Z,260
2017-08-05T07:55:30.198Z,265
2017-08-05T07:56:30.176Z,245
2017-08-05T07:57:30.165Z,225
2017-08-05T07:58:29.836Z,220
2017-08-05T07:59:30.115Z,225
2017-08-05T08:00:30.094Z,215
2017-08-05T08:01:29.790Z,210
2017-08-05T08:02:30.052Z,210
2017-08-05T08:03:30.032Z,215
2017-08-05T08:04:30.005Z,225
2017-08-05T08:05:29.691Z,250
2017-08-05T08:06:29.961Z,275
2017-08-05T08:07:29.644Z,285
2017-08-05T08:08:29.619Z,285
2017-08-05T08:09:29.912Z,250
2017-08-05T08:10:29.900Z,220
2017-08-05T08:11:29.366Z,210
2017-08-05T08:12:29.549Z,220
2017-08-05T08:13:29.809Z,230
2017-08-05T08:14:29.792Z,240
2017-08-05T08:15:29.787Z,265
2017-08-05T08:16:29.768Z,310
2017-08-05T08:17:29.725Z,360
2017-08-05T08:18:29.714Z,410
2017-08-05T08:19:29.685Z,430
2017-08-05T08:20:29.667Z,440
2017-08-05T08:21:29.641Z,450
2017-08-05T08:22:29.622Z,455
2017-08-05T08:23:29.303Z,475
2017-08-05T08:24:29.582Z,485
2017-08-05T08:25:29.259Z,480
2017-08-05T08:26:29.247Z,455
2017-08-05T08:27:29.524Z,430
2017-08-05T08:28:29.503Z,390
2017-08-05T08:29:29.471Z,345
2017-08-05T08:30:29.460Z,325
2017-08-05T08:31:29.144Z,305
2017-08-05T08:32:29.410Z,295
2017-08-05T08:33:29.099Z,290
2017-08-05T08:34:29.376Z,295
2017-08-05T08:35:29.354Z,305
2017-08-05T08:36:29.031Z,325
2017-08-05T08:37:29.317Z,360
2017-08-05T08:38:29.299Z,405
2017-08-05T08:39:29.264Z,445
2017-08-05T08:40:29.240Z,445
2017-08-05T08:41:29.225Z,430
2017-08-05T08:42:29.242Z,445
2017-08-05T08:43:29.306Z,480
2017-08-05T08:44:29.171Z,520
2017-08-05T08:45:29.146Z,545
2017-08-05T08:46:29.139Z,575
2017-08-05T08:47:29.109Z,630
2017-08-05T08:48:29.081Z,660
2017-08-05T08:49:29.064Z,660
2017-08-05T08:50:28.749Z,630
2017-08-05T08:51:28.747Z,565
2017-08-05T08:52:29.004Z,540
2017-08-05T08:53:28.987Z,560
2017-08-05T08:54:28.974Z,595
2017-08-05T08:55:28.947Z,575
2017-08-05T08:56:28.927Z,615
2017-08-05T08:57:28.905Z,720
2017-08-05T08:58:28.886Z,815
2017-08-05T08:59:28.866Z,760
2017-08-05T09:00:28.848Z,630
2017-08-05T09:01:28.826Z,540
2017-08-05T09:02:28.817Z,480
2017-08-05T09:03:28.815Z,470
2017-08-05T09:04:28.765Z,495
2017-08-05T09:05:28.455Z,540
2017-08-05T09:06:28.734Z,570
2017-08-05T09:07:28.712Z,580
2017-08-05T09:08:28.697Z,570
2017-08-05T09:09:28.672Z,575
2017-08-05T09:10:28.662Z,585
2017-08-05T09:11:28.636Z,630
2017-08-05T09:12:28.626Z,695
2017-08-05T09:13:28.605Z,740
2017-08-05T09:14:28.579Z,770
2017-08-05T09:15:28.320Z,760
2017-08-05T09:16:28.241Z,745
2017-08-05T09:17:28.526Z,765
2017-08-05T09:18:28.511Z,770
2017-08-05T09:19:28.486Z,720
2017-08-05T09:20:28.464Z,740
2017-08-05T09:21:28.450Z,775
2017-08-05T09:22:28.433Z,815
2017-08-05T09:23:28.411Z,860
2017-08-05T09:24:28.402Z,850
2017-08-05T09:25:28.376Z,745
2017-08-05T09:26:27.772Z,670
2017-08-05T09:27:28.341Z,575
2017-08-05T09:28:28.025Z,440
2017-08-05T09:29:27.718Z,500
2017-08-05T09:30:28.290Z,595
2017-08-05T09:31:27.688Z,625
2017-08-05T09:32:28.278Z,630
2017-08-05T09:33:28.238Z,655
2017-08-05T09:34:28.206Z,710
2017-08-05T09:35:27.603Z,740
2017-08-05T09:36:28.174Z,695
2017-08-05T09:37:28.156Z,645
2017-08-05T09:38:28.143Z,565
2017-08-05T09:39:28.120Z,520
2017-08-05T09:40:28.103Z,520
2017-08-05T09:41:28.087Z,530
2017-08-05T09:42:28.069Z,550
2017-08-05T09:43:28.046Z,550
2017-08-05T09:44:28.031Z,520
2017-08-05T09:45:27.717Z,500
2017-08-05T09:46:27.697Z,435
2017-08-05T09:47:27.972Z,370
2017-08-05T09:48:27.660Z,345
2017-08-05T09:49:27.641Z,380
2017-08-05T09:50:27.625Z,400
2017-08-05T09:51:27.607Z,380
2017-08-05T09:52:27.886Z,385
2017-08-05T09:53:27.571Z,480
2017-08-05T09:54:27.562Z,590
2017-08-05T09:55:27.528Z,595
2017-08-05T09:56:27.813Z,485
2017-08-05T09:57:27.502Z,385
2017-08-05T09:58:27.774Z,435
2017-08-05T09:59:27.759Z,490
2017-08-05T10:00:27.737Z,500
2017-08-05T10:01:27.455Z,500
2017-08-05T10:02:27.694Z,475
2017-08-05T10:03:27.677Z,440
2017-08-05T10:04:27.669Z,430
2017-08-05T10:05:27.639Z,400
2017-08-05T10:06:27.346Z,345
2017-08-05T10:07:27.603Z,280
2017-08-05T10:08:27.593Z,265
2017-08-05T10:09:27.571Z,295
2017-08-05T10:10:27.544Z,320
2017-08-05T10:11:28.350Z,280
2017-08-05T10:12:27.513Z,235
2017-08-05T10:13:27.498Z,185
2017-08-05T10:14:27.473Z,155
2017-08-05T10:15:27.452Z,155
2017-08-05T10:16:27.439Z,190
2017-08-05T10:17:27.124Z,295
2017-08-05T10:18:27.095Z,570
2017-08-05T10:19:27.385Z,705
2017-08-05T10:20:27.353Z,670
2017-08-05T10:21:27.336Z,570
2017-08-05T10:22:27.339Z,440
2017-08-05T10:23:27.349Z,335
2017-08-05T10:24:27.279Z,295
2017-08-05T10:25:27.266Z,275
2017-08-05T10:26:27.246Z,215
2017-08-05T10:27:27.230Z,200
2017-08-05T10:28:27.207Z,240
2017-08-05T10:29:26.894Z,205
2017-08-05T10:30:27.168Z,195
2017-08-05T10:31:26.546Z,175
2017-08-05T10:32:27.122Z,130
2017-08-05T10:33:27.104Z,165
2017-08-05T10:34:26.789Z,175
2017-08-05T10:35:27.546Z,220
2017-08-05T10:36:26.454Z,355
2017-08-05T10:37:27.016Z,440
2017-08-05T10:38:27.006Z,615
2017-08-05T10:39:26.985Z,685
2017-08-05T10:40:26.963Z,605
2017-08-05T10:41:26.652Z,510
2017-08-05T10:42:26.924Z,510
2017-08-05T10:43:26.901Z,495
2017-08-05T10:44:26.886Z,550
2017-08-05T10:45:26.861Z,545
2017-08-05T10:46:26.843Z,510
2017-08-05T10:47:26.824Z,515
2017-08-05T10:48:26.849Z,490
2017-08-05T10:49:26.484Z,470
2017-08-05T10:50:26.761Z,490
2017-08-05T10:51:26.740Z,480
2017-08-05T10:52:26.723Z,445
2017-08-05T10:53:26.410Z,445
2017-08-05T10:54:26.379Z,440
2017-08-05T10:55:26.666Z,550
2017-08-05T10:56:26.639Z,545
2017-08-05T10:57:26.319Z,535
2017-08-05T10:58:26.306Z,400
2017-08-05T10:59:26.579Z,400
2017-08-05T11:00:26.561Z,445
2017-08-05T11:01:26.540Z,520
2017-08-05T11:02:26.223Z,545
2017-08-05T11:03:26.246Z,515
2017-08-05T11:04:26.476Z,565
2017-08-05T11:05:26.463Z,610
2017-08-05T11:06:26.441Z,635
2017-08-05T11:07:26.424Z,705
2017-08-05T11:08:26.400Z,810
2017-08-05T11:09:26.130Z,910
2017-08-05T11:10:26.359Z,905
2017-08-05T11:11:26.041Z,735
2017-08-05T11:12:26.644Z,605
2017-08-05T11:13:26.306Z,625
2017-08-05T11:14:26.276Z,735
2017-08-05T11:15:25.963Z,810
2017-08-05T11:16:26.243Z,830
2017-08-05T11:17:26.221Z,815
2017-08-05T11:18:25.919Z,865
2017-08-05T11:19:25.884Z,975
2017-08-05T11:20:25.872Z,1095
2017-08-05T11:21:26.147Z,1165
2017-08-05T11:22:26.143Z,1180
2017-08-05T11:23:26.113Z,1220
2017-08-05T11:24:26.084Z,1230
2017-08-05T11:25:26.075Z,1125
2017-08-05T11:26:26.054Z,1015
2017-08-05T11:27:26.041Z,960
2017-08-05T11:28:25.726Z,1055
2017-08-05T11:29:25.708Z,1065
2017-08-05T11:30:25.984Z,1085
2017-08-05T11:31:25.661Z,1075
2017-08-05T11:32:25.944Z,985
2017-08-05T11:33:25.939Z,865
2017-08-05T11:34:25.907Z,860
2017-08-05T11:35:25.596Z,1045
2017-08-05T11:36:25.574Z,1080
2017-08-05T11:37:25.858Z,975
2017-08-05T11:38:25.546Z,780
2017-08-05T11:39:25.817Z,690
2017-08-05T11:40:25.804Z,715
2017-08-05T11:41:25.779Z,800
2017-08-05T11:42:25.766Z,875
2017-08-05T11:43:25.751Z,820
2017-08-05T11:44:25.740Z,745
2017-08-05T11:45:25.413Z,760
2017-08-05T11:46:25.696Z,795
2017-08-05T11:47:25.996Z,735
2017-08-05T11:48:25.659Z,750
2017-08-05T11:49:25.350Z,860
2017-08-05T11:50:25.667Z,945
2017-08-05T11:51:25.606Z,1115
2017-08-05T11:52:25.590Z,1130
2017-08-05T11:53:24.973Z,1065
2017-08-05T11:54:25.257Z,945
2017-08-05T11:55:25.236Z,840
2017-08-05T11:56:25.515Z,730
2017-08-05T11:57:25.500Z,810
2017-08-05T11:58:25.483Z,945
2017-08-05T11:59:25.474Z,1105
2017-08-05T12:00:25.453Z,1130
2017-08-05T12:01:25.452Z,1055
2017-08-05T12:02:25.411Z,1065
2017-08-05T12:03:24.802Z,905
2017-08-05T12:04:25.381Z,635
2017-08-05T12:05:25.362Z,505
2017-08-05T12:06:25.343Z,450
2017-08-05T12:07:25.336Z,435
2017-08-05T12:08:25.314Z,485
2017-08-05T12:09:24.997Z,390
2017-08-05T12:10:25.269Z,300
2017-08-05T12:11:25.261Z,340
2017-08-05T12:12:25.238Z,490
2017-08-05T12:13:25.224Z,560
2017-08-05T12:14:25.206Z,700
2017-08-05T12:15:25.181Z,775
2017-08-05T12:16:25.164Z,700
2017-08-05T12:17:25.152Z,770
2017-08-05T12:18:25.150Z,765
2017-08-05T12:19:25.117Z,670
2017-08-05T12:20:25.148Z,495
2017-08-05T12:21:25.085Z,510
2017-08-05T12:22:24.767Z,590
2017-08-05T12:23:24.745Z,530
2017-08-05T12:24:25.017Z,535
2017-08-05T12:25:25.005Z,515
2017-08-05T12:26:24.994Z,390
2017-08-05T12:27:24.965Z,320
2017-08-05T12:28:24.658Z,295
2017-08-05T12:29:24.628Z,240
2017-08-05T12:30:24.920Z,255
2017-08-05T12:31:24.598Z,270
2017-08-05T12:32:24.869Z,240
2017-08-05T12:33:24.851Z,210
2017-08-05T12:34:24.836Z,195
2017-08-05T12:35:24.808Z,265
2017-08-05T12:36:24.802Z,400
2017-08-05T12:37:24.777Z,775
2017-08-05T12:38:24.756Z,1150
2017-08-05T12:39:24.734Z,1220
2017-08-05T12:40:24.713Z,1165
2017-08-05T12:41:24.398Z,1515
2017-08-05T12:42:24.677Z,1275
2017-08-05T12:43:24.654Z,1220
2017-08-05T12:44:24.338Z,1430
2017-08-05T12:45:24.331Z,1620
2017-08-05T12:46:24.317Z,1965
2017-08-05T12:47:24.288Z,2485
2017-08-05T12:48:23.970Z,1510
2017-08-05T12:49:24.552Z,1670
2017-08-05T12:50:24.236Z,2585
2017-08-05T12:51:24.265Z,1440
2017-08-05T12:52:23.903Z,3400
2017-08-05T12:53:24.204Z,1525
2017-08-05T12:54:24.165Z,1340
2017-08-05T12:55:24.158Z,1190
2017-08-05T12:56:24.131Z,1260
2017-08-05T12:57:24.410Z,1515
2017-08-05T12:58:24.407Z,2345
2017-08-05T12:59:24.088Z,4365
2017-08-05T13:00:24.072Z,3795
2017-08-05T13:01:24.059Z,1770
2017-08-05T13:02:24.335Z,1665
2017-08-05T13:03:24.043Z,1520
2017-08-05T13:04:24.314Z,1620
2017-08-05T13:05:24.293Z,1810
2017-08-05T13:06:23.984Z,1590
2017-08-05T13:07:24.260Z,1145
2017-08-05T13:08:23.952Z,1060
2017-08-05T13:09:23.941Z,995
2017-08-05T13:10:24.222Z,1140
2017-08-05T13:11:24.210Z,985
2017-08-05T13:12:24.203Z,1080
2017-08-05T13:13:24.181Z,1305
2017-08-05T13:14:24.169Z,1085
2017-08-05T13:15:24.156Z,1035
2017-08-05T13:16:23.561Z,1135
2017-08-05T13:17:23.833Z,1050
2017-08-05T13:18:24.110Z,1040
2017-08-05T13:19:24.097Z,1110
2017-08-05T13:20:24.083Z,1360
2017-08-05T13:21:23.769Z,1290
2017-08-05T13:22:23.754Z,1215
2017-08-05T13:23:23.740Z,1145
2017-08-05T13:24:24.023Z,1220
2017-08-05T13:25:24.005Z,1785
2017-08-05T13:26:23.994Z,1480
2017-08-05T13:27:23.980Z,2040
2017-08-05T13:28:23.967Z,1640
2017-08-05T13:29:23.648Z,2485
2017-08-05T13:30:23.935Z,1250
2017-08-05T13:31:23.920Z,975
2017-08-05T13:32:23.909Z,880
2017-08-05T13:33:23.897Z,1025
2017-08-05T13:34:23.878Z,1290
2017-08-05T13:35:23.559Z,3515
2017-08-05T13:36:23.853Z,3755
2017-08-05T13:37:23.834Z,1190
2017-08-05T13:38:23.822Z,1085
2017-08-05T13:39:23.803Z,920
2017-08-05T13:40:23.500Z,735
2017-08-05T13:41:23.791Z,780
2017-08-05T13:42:23.765Z,695
2017-08-05T13:43:23.749Z,530
2017-08-05T13:44:23.730Z,425
2017-08-05T13:45:23.130Z,435
2017-08-05T13:46:23.414Z,450
2017-08-05T13:47:23.101Z,445
2017-08-05T13:48:23.085Z,545
2017-08-05T13:49:23.660Z,565
2017-08-05T13:50:23.644Z,670
2017-08-05T13:51:23.626Z,770
2017-08-05T13:52:23.642Z,715
2017-08-05T13:53:23.599Z,750
2017-08-05T13:54:23.287Z,840
2017-08-05T13:55:22.974Z,895
2017-08-05T13:56:23.553Z,950
2017-08-05T13:57:23.538Z,980
2017-08-05T13:58:23.520Z,1050
2017-08-05T13:59:23.512Z,1145
2017-08-05T14:00:23.490Z,1230
2017-08-05T14:01:23.176Z,1425
2017-08-05T14:02:23.449Z,2730
2017-08-05T14:03:23.139Z,3100
2017-08-05T14:04:22.837Z,2865